Time;durP1;ratioP1;P1;durP2;ratioP2;P2;SDS_P1;SDS_P2;PMS_P1;PMS_P2;Temp;Humidity;BMP_temperature;BMP_pressure;BME280_temperature;BME280_humidity;BME280_pressure;Samples;Min_cycle;Max_cycle;Signal;HPM_P1;HPM_P2
2023/04/06 00:02:08;;;;;;;;;;;;;;;;;;4470385;32;19957;-77
2023/04/06 00:04:33;;;;;;;;;;;;;;;;;;4470612;32;19921;-78
2023/04/06 00:06:58;;;;;;;;;;;;;;;;;;4467633;32;19943;-76
2023/04/06 00:09:23;;;;;;;;;;;;;;;;;;4463625;32;20285;-77
2023/04/06 00:11:48;;;;;;;;;;;;;;;;;;4445356;32;20018;-77
2023/04/06 00:14:17;;;;;;;;;;;;;;;;;;4455294;32;19936;-78
2023/04/06 00:16:42;;;;;;;;;;;;;;;;;;4441318;32;20286;-78
2023/04/06 00:19:07;;;;;;;;;;;;;;;;;;4454193;32;20002;-77
2023/04/06 00:21:32;;;;;;;;;;;;;;;;;;4454813;32;19966;-77
2023/04/06 00:23:57;;;;;;;;;;;;;;;;;;4439904;32;20339;-78
2023/04/06 00:26:22;;;;;;;;;;;;;;;;;;4453357;32;20257;-77
2023/04/06 00:28:49;;;;;;;;;;;;;;;;;;4453741;32;20026;-77
2023/04/06 00:31:15;;;;;;;;;;;;;;;;;;4452916;32;19932;-78
2023/04/06 00:33:40;;;;;;;;;;;;;;;;;;4439029;32;19952;-78
2023/04/06 00:36:05;;;;;;;;;;;;;;;;;;4452861;32;20215;-78
2023/04/06 00:38:30;;;;;;;;;;;;;;;;;;4453083;32;19976;-77
2023/04/06 00:40:56;;;;;;;;;;;;;;;;;;4454664;32;19945;-77
2023/04/06 00:43:21;;;;;;;;;;;;;;;;;;4439072;32;19984;-77
2023/04/06 00:45:46;;;;;;;;;;;;;;;;;;4453852;32;19933;-77
2023/04/06 00:48:11;;;;;;;;;;;;;;;;;;4447712;32;19937;-77
2023/04/06 00:50:36;;;;;;;;;;;;;;;;;;4446433;32;19982;-77
2023/04/06 00:53:02;;;;;;;;;;;;;;;;;;4461996;32;19932;-76
2023/04/06 00:55:27;;;;;;;;;;;;;;;;;;4461271;32;19940;-77
2023/04/06 00:57:52;;;;;;;;;;;;;;;;;;4445689;32;19969;-77
2023/04/06 01:00:17;;;;;;;;;;;;;;;;;;4462968;32;20320;-76
2023/04/06 01:02:44;;;;;;;;;;;;;;;;;;4447666;32;19940;-74
2023/04/06 01:05:09;;;;;;;;;;;;;;;;;;4457442;32;19937;-75
2023/04/06 01:07:35;;;;;;;;;;;;;;;;;;4451486;32;19947;-75
2023/04/06 01:10:00;;;;;;;;;;;;;;;;;;4460369;32;20000;-77
2023/04/06 01:12:25;;;;;;;;;;;;;;;;;;4459684;32;19996;-77
2023/04/06 01:14:50;;;;;;;;;;;;;;;;;;4460481;32;19940;-76
2023/04/06 01:17:15;;;;;;;;;;;;;;;;;;4445287;32;19980;-76
2023/04/06 01:19:41;;;;;;;;;;;;;;;;;;4456033;32;19937;-76
2023/04/06 01:22:06;;;;;;;;;;;;;;;;;;4456413;32;19980;-75
2023/04/06 01:24:31;;;;;;;;;;;;;;;;;;4456824;32;19940;-77
2023/04/06 01:26:56;;;;;;;;;;;;;;;;;;4443923;32;19971;-76
2023/04/06 01:29:21;;;;;;;;;;;;;;;;;;4459081;32;19940;-76
2023/04/06 01:31:46;;;;;;;;;;;;;;;;;;4464634;32;19975;-76
2023/04/06 01:34:12;;;;;;;;;;;;;;;;;;4433642;32;20286;-76
2023/04/06 01:36:37;;;;;;;;;;;;;;;;;;4421662;32;19977;-76
2023/04/06 01:39:02;;;;;;;;;;;;;;;;;;4427264;32;19937;-77
2023/04/06 01:41:27;;;;;;;;;;;;;;;;;;4427257;32;20009;-76
2023/04/06 01:43:54;;;;;;;;;;;;;;;;;;4428508;32;20318;-77
2023/04/06 01:46:19;;;;;;;;;;;;;;;;;;4415717;32;19944;-77
2023/04/06 01:48:45;;;;;;;;;;;;;;;;;;4424206;32;19965;-76
2023/04/06 01:51:10;;;;;;;;;;;;;;;;;;4423927;32;19938;-77
2023/04/06 01:53:35;;;;;;;;;;;;;;;;;;4410004;32;19941;-76
2023/04/06 01:56:00;;;;;;;;;;;;;;;;;;4424214;32;20343;-77
2023/04/06 01:58:26;;;;;;;;;;;;;;;;;;4422676;32;19988;-77
2023/04/06 02:00:51;;;;;;;;;;;;;;;;;;4407748;32;19948;-77
2023/04/06 02:03:16;;;;;;;;;;;;;;;;;;4421523;32;20288;-77
2023/04/06 02:05:41;;;;;;;;;;;;;;;;;;4422385;32;19933;-77
2023/04/06 02:08:06;;;;;;;;;;;;;;;;;;4407557;32;19986;-77
2023/04/06 02:10:31;;;;;;;;;;;;;;;;;;4408972;32;19951;-77
2023/04/06 02:12:57;;;;;;;;;;;;;;;;;;4408964;32;19984;-77
2023/04/06 02:15:22;;;;;;;;;;;;;;;;;;4408399;32;19945;-77
2023/04/06 02:17:47;;;;;;;;;;;;;;;;;;4408496;32;19987;-77
2023/04/06 02:20:12;;;;;;;;;;;;;;;;;;4406862;32;19957;-76
2023/04/06 02:22:37;;;;;;;;;;;;;;;;;;4404667;32;19937;-76
2023/04/06 02:25:02;;;;;;;;;;;;;;;;;;4404470;32;19941;-76
2023/04/06 02:27:27;;;;;;;;;;;;;;;;;;4406729;32;20304;-76
2023/04/06 02:29:52;;;;;;;;;;;;;;;;;;4404933;32;19993;-76
2023/04/06 02:32:18;;;;;;;;;;;;;;;;;;4405204;32;19948;-77
2023/04/06 02:34:43;;;;;;;;;;;;;;;;;;4407211;32;19949;-77
2023/04/06 02:37:08;;;;;;;;;;;;;;;;;;4407528;32;19988;-77
2023/04/06 02:39:33;;;;;;;;;;;;;;;;;;4410271;32;19933;-76
2023/04/06 02:41:58;;;;;;;;;;;;;;;;;;4411183;32;19992;-77
2023/04/06 02:44:23;;;;;;;;;;;;;;;;;;4410792;32;19948;-76
2023/04/06 02:46:48;;;;;;;;;;;;;;;;;;4410027;32;19949;-77
2023/04/06 02:49:13;;;;;;;;;;;;;;;;;;4411273;32;19952;-78
2023/04/06 02:51:38;;;;;;;;;;;;;;;;;;4412568;32;19942;-78
2023/04/06 02:54:03;;;;;;;;;;;;;;;;;;4411607;32;19937;-78
2023/04/06 02:56:29;;;;;;;;;;;;;;;;;;4410614;32;19951;-77
2023/04/06 02:58:54;;;;;;;;;;;;;;;;;;4412340;32;19937;-77
2023/04/06 03:01:19;;;;;;;;;;;;;;;;;;4413350;32;19937;-76
2023/04/06 03:03:44;;;;;;;;;;;;;;;;;;4409312;32;19938;-77
2023/04/06 03:06:09;;;;;;;;;;;;;;;;;;4411991;32;19947;-76
2023/04/06 03:08:35;;;;;;;;;;;;;;;;;;4411505;32;19952;-77
2023/04/06 03:11:00;;;;;;;;;;;;;;;;;;4411410;32;19933;-76
2023/04/06 03:13:25;;;;;;;;;;;;;;;;;;4427587;32;19941;-78
2023/04/06 03:15:50;;;;;;;;;;;;;;;;;;4425237;32;19934;-76
2023/04/06 03:18:15;;;;;;;;;;;;;;;;;;4424590;32;19933;-78
2023/04/06 03:20:41;;;;;;;;;;;;;;;;;;4423392;32;19953;-78
2023/04/06 03:23:06;;;;;;;;;;;;;;;;;;4409827;32;19969;-77
2023/04/06 03:25:31;;;;;;;;;;;;;;;;;;4409591;32;19941;-77
2023/04/06 03:27:56;;;;;;;;;;;;;;;;;;4410149;32;19976;-77
2023/04/06 03:30:21;;;;;;;;;;;;;;;;;;4409090;32;19937;-76
2023/04/06 03:32:46;;;;;;;;;;;;;;;;;;4423086;32;20336;-76
2023/04/06 03:35:12;;;;;;;;;;;;;;;;;;4424599;32;19951;-77
2023/04/06 03:37:37;;;;;;;;;;;;;;;;;;4423830;32;20014;-78
2023/04/06 03:40:02;;;;;;;;;;;;;;;;;;4424365;32;19941;-78
2023/04/06 03:42:27;;;;;;;;;;;;;;;;;;4410405;32;19937;-78
2023/04/06 03:44:52;;;;;;;;;;;;;;;;;;4409639;32;19981;-78
2023/04/06 03:47:17;;;;;;;;;;;;;;;;;;4424573;32;19973;-77
2023/04/06 03:49:43;;;;;;;;;;;;;;;;;;4421178;32;20040;-77
2023/04/06 03:52:08;;;;;;;;;;;;;;;;;;4430665;32;19991;-78
2023/04/06 03:54:33;;;;;;;;;;;;;;;;;;4416620;32;19955;-76
2023/04/06 03:56:58;;;;;;;;;;;;;;;;;;4427739;32;19941;-77
2023/04/06 03:59:23;;;;;;;;;;;;;;;;;;4428550;32;19937;-77
2023/04/06 04:01:48;;;;;;;;;;;;;;;;;;4411401;32;19968;-77
2023/04/06 04:04:13;;;;;;;;;;;;;;;;;;4409861;32;19937;-78
2023/04/06 04:06:38;;;;;;;;;;;;;;;;;;4423450;32;19937;-77
2023/04/06 04:09:03;;;;;;;;;;;;;;;;;;4409145;32;19974;-77
2023/04/06 04:11:28;;;;;;;;;;;;;;;;;;4423295;32;20016;-78
2023/04/06 04:13:54;;;;;;;;;;;;;;;;;;4423356;32;20258;-77
2023/04/06 04:16:19;;;;;;;;;;;;;;;;;;4410475;32;19952;-78
2023/04/06 04:18:45;;;;;;;;;;;;;;;;;;4425410;32;19966;-77
2023/04/06 04:21:10;;;;;;;;;;;;;;;;;;4424642;32;20283;-77
2023/04/06 04:23:35;;;;;;;;;;;;;;;;;;4409164;32;19953;-78
2023/04/06 04:26:01;;;;;;;;;;;;;;;;;;4409045;32;19937;-77
2023/04/06 04:28:26;;;;;;;;;;;;;;;;;;4422680;32;20277;-77
2023/04/06 04:30:51;;;;;;;;;;;;;;;;;;4416072;32;19976;-78
2023/04/06 04:33:16;;;;;;;;;;;;;;;;;;4453551;32;19972;-78
2023/04/06 04:35:41;;;;;;;;;;;;;;;;;;4452805;32;20235;-78
2023/04/06 04:38:06;;;;;;;;;;;;;;;;;;4438536;32;19969;-77
2023/04/06 04:40:31;;;;;;;;;;;;;;;;;;4438420;32;19960;-78
2023/04/06 04:42:56;;;;;;;;;;;;;;;;;;4439031;32;19936;-77
2023/04/06 04:45:21;;;;;;;;;;;;;;;;;;4453462;32;19932;-78
2023/04/06 04:47:47;;;;;;;;;;;;;;;;;;4454033;32;19932;-77
2023/04/06 04:50:12;;;;;;;;;;;;;;;;;;4452586;32;19991;-77
2023/04/06 04:52:37;;;;;;;;;;;;;;;;;;4453257;32;20368;-78
2023/04/06 04:55:02;;;;;;;;;;;;;;;;;;4453134;32;19932;-77
2023/04/06 04:57:27;;;;;;;;;;;;;;;;;;4455336;32;19985;-77
2023/04/06 04:59:52;;;;;;;;;;;;;;;;;;4455119;32;20274;-77
2023/04/06 05:02:17;;;;;;;;;;;;;;;;;;4440307;32;19968;-77
2023/04/06 05:04:42;;;;;;;;;;;;;;;;;;4455190;32;19940;-76
2023/04/06 05:07:07;;;;;;;;;;;;;;;;;;4455300;32;19971;-76
2023/04/06 05:09:33;;;;;;;;;;;;;;;;;;4454385;32;19978;-77
2023/04/06 05:11:58;;;;;;;;;;;;;;;;;;4439233;32;20257;-78
2023/04/06 05:14:23;;;;;;;;;;;;;;;;;;4438813;32;19963;-77
2023/04/06 05:16:48;;;;;;;;;;;;;;;;;;4453464;32;19932;-77
2023/04/06 05:19:13;;;;;;;;;;;;;;;;;;4438649;32;19948;-77
2023/04/06 05:21:38;;;;;;;;;;;;;;;;;;4453533;32;19959;-78
2023/04/06 05:24:03;;;;;;;;;;;;;;;;;;4440027;32;19940;-77
2023/04/06 05:26:29;;;;;;;;;;;;;;;;;;4456754;32;19947;-76
2023/04/06 05:28:54;;;;;;;;;;;;;;;;;;4444129;32;19976;-78
2023/04/06 05:31:20;;;;;;;;;;;;;;;;;;4441385;32;20365;-76
2023/04/06 05:33:45;;;;;;;;;;;;;;;;;;4460196;32;19932;-76
2023/04/06 05:36:10;;;;;;;;;;;;;;;;;;4446602;32;19951;-76
2023/04/06 05:38:35;;;;;;;;;;;;;;;;;;4461640;32;19951;-77
2023/04/06 05:41:00;;;;;;;;;;;;;;;;;;4462114;32;19956;-77
2023/04/06 05:43:25;;;;;;;;;;;;;;;;;;4446773;32;20343;-77
2023/04/06 05:45:51;;;;;;;;;;;;;;;;;;4452425;32;19947;-75
2023/04/06 05:48:16;;;;;;;;;;;;;;;;;;4437104;32;19937;-76
2023/04/06 05:50:41;;;;;;;;;;;;;;;;;;4421051;32;19945;-77
2023/04/06 05:53:06;;;;;;;;;;;;;;;;;;4420341;32;19937;-77
2023/04/06 05:55:31;;;;;;;;;;;;;;;;;;4419893;32;19941;-77
2023/04/06 05:57:56;;;;;;;;;;;;;;;;;;4421875;32;19968;-76
2023/04/06 06:00:21;;;;;;;;;;;;;;;;;;4419545;32;19936;-77
2023/04/06 06:02:46;;;;;;;;;;;;;;;;;;4421303;32;20332;-77
2023/04/06 06:05:12;;;;;;;;;;;;;;;;;;4419239;32;19937;-77
2023/04/06 06:07:37;;;;;;;;;;;;;;;;;;4419330;32;20314;-76
2023/04/06 06:10:02;;;;;;;;;;;;;;;;;;4419344;32;19967;-76
2023/04/06 06:12:27;;;;;;;;;;;;;;;;;;4420623;32;19960;-76
2023/04/06 06:14:52;;;;;;;;;;;;;;;;;;4421309;32;19948;-76
2023/04/06 06:17:17;;;;;;;;;;;;;;;;;;4421504;32;19976;-77
2023/04/06 06:19:42;;;;;;;;;;;;;;;;;;4420923;32;19975;-77
2023/04/06 06:22:07;;;;;;;;;;;;;;;;;;4421631;32;19952;-76
2023/04/06 06:24:32;;;;;;;;;;;;;;;;;;4421110;32;19937;-77
2023/04/06 06:26:58;;;;;;;;;;;;;;;;;;4422568;32;19980;-77
2023/04/06 06:29:24;;;;;;;;;;;;;;;;;;4422395;32;20396;-76
2023/04/06 06:31:49;;;;;;;;;;;;;;;;;;4420826;32;20326;-77
2023/04/06 06:34:14;;;;;;;;;;;;;;;;;;4423307;32;19985;-75
2023/04/06 06:36:39;;;;;;;;;;;;;;;;;;4424189;32;19953;-77
2023/04/06 06:39:05;;;;;;;;;;;;;;;;;;4424155;32;19941;-78
2023/04/06 06:41:30;;;;;;;;;;;;;;;;;;4426749;32;19956;-76
2023/04/06 06:43:55;;;;;;;;;;;;;;;;;;4433439;32;19930;-76
2023/04/06 06:46:20;;;;;;;;;;;;;;;;;;4431371;32;19933;-77
2023/04/06 06:48:45;;;;;;;;;;;;;;;;;;4427125;32;19974;-77
2023/04/06 06:51:11;;;;;;;;;;;;;;;;;;4425989;32;19937;-76
2023/04/06 06:53:36;;;;;;;;;;;;;;;;;;4426696;32;19945;-76
2023/04/06 06:56:01;;;;;;;;;;;;;;;;;;4423453;32;19947;-76
2023/04/06 06:58:27;;;;;;;;;;;;;;;;;;4422617;32;19972;-76
2023/04/06 07:00:52;;;;;;;;;;;;;;;;;;4423124;32;19942;-81
2023/04/06 07:03:17;;;;;;;;;;;;;;;;;;4424324;32;19933;-77
2023/04/06 07:05:42;;;;;;;;;;;;;;;;;;4422003;32;19945;-76
2023/04/06 07:08:07;;;;;;;;;;;;;;;;;;4422906;32;19984;-76
2023/04/06 07:10:32;;;;;;;;;;;;;;;;;;4423403;32;19942;-77
2023/04/06 07:12:57;;;;;;;;;;;;;;;;;;4423248;32;20327;-77
2023/04/06 07:15:22;;;;;;;;;;;;;;;;;;4421652;32;20343;-76
2023/04/06 07:17:54;;;;;;;;;;;;;;;;;;4423687;32;19975;-76
2023/04/06 07:20:19;;;;;;;;;;;;;;;;;;4423599;32;19969;-78
2023/04/06 07:22:44;;;;;;;;;;;;;;;;;;4423607;32;19941;-77
2023/04/06 07:25:10;;;;;;;;;;;;;;;;;;4421689;32;19981;-77
2023/04/06 07:27:35;;;;;;;;;;;;;;;;;;4422822;32;19941;-78
2023/04/06 07:30:00;;;;;;;;;;;;;;;;;;4421551;32;19969;-76
2023/04/06 07:32:25;;;;;;;;;;;;;;;;;;4421725;32;20321;-77
2023/04/06 07:34:50;;;;;;;;;;;;;;;;;;4422708;32;19977;-77
2023/04/06 07:37:16;;;;;;;;;;;;;;;;;;4422648;32;19932;-76
2023/04/06 07:39:41;;;;;;;;;;;;;;;;;;4424154;32;20304;-76
2023/04/06 07:42:06;;;;;;;;;;;;;;;;;;4422969;32;20294;-76
2023/04/06 07:44:31;;;;;;;;;;;;;;;;;;4420513;32;20340;-76
2023/04/06 07:46:56;;;;;;;;;;;;;;;;;;4421563;32;19941;-77
2023/04/06 07:49:22;;;;;;;;;;;;;;;;;;4421429;32;19956;-78
2023/04/06 07:51:47;;;;;;;;;;;;;;;;;;4421187;32;20028;-78
2023/04/06 07:54:12;;;;;;;;;;;;;;;;;;4421099;32;19933;-78
2023/04/06 07:56:38;;;;;;;;;;;;;;;;;;4422576;32;19987;-77
2023/04/06 07:59:03;;;;;;;;;;;;;;;;;;4421129;32;19942;-77
2023/04/06 08:01:28;;;;;;;;;;;;;;;;;;4446519;32;20058;-77
2023/04/06 08:03:55;;;;;;;;;;;;;;;;;;4453264;32;19943;-77
2023/04/06 08:06:20;;;;;;;;;;;;;;;;;;4453093;32;19969;-77
2023/04/06 08:08:45;;;;;;;;;;;;;;;;;;4439096;32;20024;-75
2023/04/06 08:11:10;;;;;;;;;;;;;;;;;;4440249;32;19936;-77
2023/04/06 08:13:36;;;;;;;;;;;;;;;;;;4439351;32;20283;-77
2023/04/06 08:16:01;;;;;;;;;;;;;;;;;;4453020;32;19999;-77
2023/04/06 08:18:26;;;;;;;;;;;;;;;;;;4440172;32;19941;-76
2023/04/06 08:20:51;;;;;;;;;;;;;;;;;;4453497;32;19940;-76
2023/04/06 08:23:16;;;;;;;;;;;;;;;;;;4452706;32;19947;-77
2023/04/06 08:25:41;;;;;;;;;;;;;;;;;;4453814;32;19940;-76
2023/04/06 08:28:09;;;;;;;;;;;;;;;;;;4440565;32;20361;-77
2023/04/06 08:30:34;;;;;;;;;;;;;;;;;;4438543;32;20332;-77
2023/04/06 08:32:59;;;;;;;;;;;;;;;;;;4454597;32;20235;-76
2023/04/06 08:35:24;;;;;;;;;;;;;;;;;;4454393;32;19932;-77
2023/04/06 08:37:49;;;;;;;;;;;;;;;;;;4453683;32;19932;-76
2023/04/06 08:40:15;;;;;;;;;;;;;;;;;;4452897;32;20293;-78
2023/04/06 08:42:41;;;;;;;;;;;;;;;;;;4438518;32;19951;-78
2023/04/06 08:45:06;;;;;;;;;;;;;;;;;;4453083;32;19936;-77
2023/04/06 08:47:31;;;;;;;;;;;;;;;;;;4453558;32;19932;-76
2023/04/06 08:49:56;;;;;;;;;;;;;;;;;;4453942;32;19951;-77
2023/04/06 08:52:21;;;;;;;;;;;;;;;;;;4438789;32;19993;-77
2023/04/06 08:54:46;;;;;;;;;;;;;;;;;;4454236;32;19985;-77
2023/04/06 08:57:11;;;;;;;;;;;;;;;;;;4454076;32;19933;-76
2023/04/06 08:59:37;;;;;;;;;;;;;;;;;;4453911;32;19940;-77
2023/04/06 09:02:02;;;;;;;;;;;;;;;;;;4420993;32;20281;-77
2023/04/06 09:04:27;;;;;;;;;;;;;;;;;;4428911;32;19945;-78
2023/04/06 09:06:52;;;;;;;;;;;;;;;;;;4425841;32;19982;-77
2023/04/06 09:09:17;;;;;;;;;;;;;;;;;;4420388;32;19960;-78
2023/04/06 09:11:42;;;;;;;;;;;;;;;;;;4422362;32;19941;-78
2023/04/06 09:14:07;;;;;;;;;;;;;;;;;;4422947;32;20008;-75
2023/04/06 09:16:32;;;;;;;;;;;;;;;;;;4421042;32;19994;-77
2023/04/06 09:21:42;;;;;;;;;;;;;;;;;;4427981;32;19936;-76
2023/04/06 09:24:07;;;;;;;;;;;;;;;;;;4420024;32;19940;-76
2023/04/06 09:26:33;;;;;;;;;;;;;;;;;;4433686;32;19940;-77
2023/04/06 09:29:00;;;;;;;;;;;;;;;;;;4425869;32;19957;-76
2023/04/06 09:31:26;;;;;;;;;;;;;;;;;;4414286;32;20269;-76
2023/04/06 09:33:51;;;;;;;;;;;;;;;;;;4424903;32;20263;-77
2023/04/06 09:36:17;;;;;;;;;;;;;;;;;;4421145;32;20247;-80
2023/04/06 09:38:42;;;;;;;;;;;;;;;;;;4422141;32;19948;-80
2023/04/06 09:41:07;;;;;;;;;;;;;;;;;;4425910;32;19932;-81
2023/04/06 09:43:32;;;;;;;;;;;;;;;;;;4441086;32;20000;-80
2023/04/06 09:45:58;;;;;;;;;;;;;;;;;;4427723;32;19937;-79
2023/04/06 09:48:23;;;;;;;;;;;;;;;;;;4438114;32;19964;-80
2023/04/06 09:50:48;;;;;;;;;;;;;;;;;;4421653;32;19948;-80
2023/04/06 09:53:13;;;;;;;;;;;;;;;;;;4426265;32;19937;-80
2023/04/06 09:55:38;;;;;;;;;;;;;;;;;;4420035;32;19957;-81
2023/04/06 09:58:14;;;;;;;;;;;;;;;;;;4423219;32;19940;-81
2023/04/06 10:00:39;;;;;;;;;;;;;;;;;;4421394;32;19930;-82
2023/04/06 10:03:04;;;;;;;;;;;;;;;;;;4421101;32;19925;-80
2023/04/06 10:05:30;;;;;;;;;;;;;;;;;;4420563;32;19933;-80
2023/04/06 10:07:55;;;;;;;;;;;;;;;;;;4428514;32;19944;-81
2023/04/06 10:10:20;;;;;;;;;;;;;;;;;;4436951;32;19932;-80
2023/04/06 10:12:45;;;;;;;;;;;;;;;;;;4421967;32;19994;-81
2023/04/06 10:15:10;;;;;;;;;;;;;;;;;;4422670;32;19993;-80
2023/04/06 10:17:35;;;;;;;;;;;;;;;;;;4436898;32;19947;-81
2023/04/06 10:20:00;;;;;;;;;;;;;;;;;;4421949;32;19955;-81
2023/04/06 10:22:26;;;;;;;;;;;;;;;;;;4436530;32;20300;-80
2023/04/06 10:24:51;;;;;;;;;;;;;;;;;;4423699;32;19961;-80
2023/04/06 10:27:16;;;;;;;;;;;;;;;;;;4437739;32;20288;-81
2023/04/06 10:29:41;;;;;;;;;;;;;;;;;;4423123;32;19936;-81
2023/04/06 10:32:06;;;;;;;;;;;;;;;;;;4424151;32;20245;-81
2023/04/06 10:34:31;;;;;;;;;;;;;;;;;;4424879;32;19941;-82
2023/04/06 10:36:56;;;;;;;;;;;;;;;;;;4426769;32;19977;-83
2023/04/06 10:39:21;;;;;;;;;;;;;;;;;;4429867;32;19936;-80
2023/04/06 10:41:48;;;;;;;;;;;;;;;;;;4436825;32;19987;-79
2023/04/06 10:44:13;;;;;;;;;;;;;;;;;;4426833;32;20326;-80
2023/04/06 10:46:38;;;;;;;;;;;;;;;;;;4426087;32;20332;-79
2023/04/06 10:49:03;;;;;;;;;;;;;;;;;;4426357;32;19961;-80
2023/04/06 10:51:29;;;;;;;;;;;;;;;;;;4434913;32;20322;-80
2023/04/06 10:53:54;;;;;;;;;;;;;;;;;;4416449;32;19933;-80
2023/04/06 10:56:20;;;;;;;;;;;;;;;;;;4414136;32;20330;-81
2023/04/06 10:58:46;;;;;;;;;;;;;;;;;;4408923;32;19948;-81
2023/04/06 11:01:11;;;;;;;;;;;;;;;;;;4424421;32;19945;-81
2023/04/06 11:03:37;;;;;;;;;;;;;;;;;;4420069;32;19940;-80
2023/04/06 11:08:46;;;;;;;;;;;;;;;;;;4440995;32;19927;-79
2023/04/06 11:11:15;;;;;;;;;;;;;;;;;;4427371;32;19941;-77
2023/04/06 11:13:40;;;;;;;;;;;;;;;;;;4426607;32;19936;-76
2023/04/06 11:16:05;;;;;;;;;;;;;;;;;;4416469;32;19968;-76
2023/04/06 11:18:30;;;;;;;;;;;;;;;;;;4425492;32;19941;-74
2023/04/06 11:20:56;;;;;;;;;;;;;;;;;;4424938;32;19951;-75
2023/04/06 11:23:21;;;;;;;;;;;;;;;;;;4429577;32;19949;-76
2023/04/06 11:25:46;;;;;;;;;;;;;;;;;;4417909;32;19937;-76
2023/04/06 11:28:11;;;;;;;;;;;;;;;;;;4433170;32;19941;-76
2023/04/06 11:30:36;;;;;;;;;;;;;;;;;;4433185;32;19937;-74
2023/04/06 11:33:02;;;;;;;;;;;;;;;;;;4416755;32;20003;-75
2023/04/06 11:35:27;;;;;;;;;;;;;;;;;;4421546;32;19980;-75
2023/04/06 11:37:52;;;;;;;;;;;;;;;;;;4424018;32;20016;-76
2023/04/06 11:40:17;;;;;;;;;;;;;;;;;;4424693;32;19933;-75
2023/04/06 11:42:44;;;;;;;;;;;;;;;;;;4429745;32;19941;-78
2023/04/06 11:45:10;;;;;;;;;;;;;;;;;;4408841;32;20369;-77
2023/04/06 11:47:35;;;;;;;;;;;;;;;;;;4423114;32;19937;-76
2023/04/06 11:50:00;;;;;;;;;;;;;;;;;;4423888;32;19947;-77
2023/04/06 11:52:25;;;;;;;;;;;;;;;;;;4437924;32;20226;-77
2023/04/06 11:54:51;;;;;;;;;;;;;;;;;;4437532;32;20286;-76
2023/04/06 11:57:16;;;;;;;;;;;;;;;;;;4415403;32;20254;-78
2023/04/06 11:59:41;;;;;;;;;;;;;;;;;;4428999;32;20312;-77
2023/04/06 12:02:06;;;;;;;;;;;;;;;;;;4438262;32;19974;-77
2023/04/06 12:04:31;;;;;;;;;;;;;;;;;;4423959;32;19937;-77
2023/04/06 12:06:56;;;;;;;;;;;;;;;;;;4423846;32;19982;-77
2023/04/06 12:09:22;;;;;;;;;;;;;;;;;;4425789;32;19944;-77
2023/04/06 12:11:47;;;;;;;;;;;;;;;;;;4425623;32;19940;-76
2023/04/06 12:14:12;;;;;;;;;;;;;;;;;;4425302;32;20321;-77
2023/04/06 12:16:37;;;;;;;;;;;;;;;;;;4427505;32;19937;-77
2023/04/06 12:19:02;;;;;;;;;;;;;;;;;;4430643;32;19936;-76
2023/04/06 12:21:28;;;;;;;;;;;;;;;;;;4412790;32;19948;-77
2023/04/06 12:23:53;;;;;;;;;;;;;;;;;;4436375;32;20012;-77
2023/04/06 12:26:18;;;;;;;;;;;;;;;;;;4438211;32;20416;-76
2023/04/06 12:28:44;;;;;;;;;;;;;;;;;;4426374;32;20390;-78
2023/04/06 12:31:09;;;;;;;;;;;;;;;;;;4440101;32;20401;-77
2023/04/06 12:33:35;;;;;;;;;;;;;;;;;;4429513;32;19940;-78
2023/04/06 12:36:00;;;;;;;;;;;;;;;;;;4425460;32;19974;-77
2023/04/06 12:38:26;;;;;;;;;;;;;;;;;;4437652;32;19986;-78
2023/04/06 12:40:51;;;;;;;;;;;;;;;;;;4430680;32;19953;-77
2023/04/06 12:43:18;;;;;;;;;;;;;;;;;;4436753;32;20348;-78
2023/04/06 12:45:43;;;;;;;;;;;;;;;;;;4424013;32;19962;-77
2023/04/06 12:48:09;;;;;;;;;;;;;;;;;;4426423;32;19933;-76
2023/04/06 12:50:34;;;;;;;;;;;;;;;;;;4430322;32;19941;-78
2023/04/06 12:52:59;;;;;;;;;;;;;;;;;;4436053;32;20245;-77
2023/04/06 12:55:24;;;;;;;;;;;;;;;;;;4422547;32;19937;-78
2023/04/06 12:57:50;;;;;;;;;;;;;;;;;;4436744;32;19988;-76
2023/04/06 13:00:15;;;;;;;;;;;;;;;;;;4432246;32;19941;-77
2023/04/06 13:02:46;;;;;;;;;;;;;;;;;;4420856;32;19933;-78
2023/04/06 13:05:11;;;;;;;;;;;;;;;;;;4420976;32;19929;-77
2023/04/06 13:07:36;;;;;;;;;;;;;;;;;;4423014;32;19955;-79
2023/04/06 13:10:01;;;;;;;;;;;;;;;;;;4426801;32;19933;-76
2023/04/06 13:12:26;;;;;;;;;;;;;;;;;;4422379;32;19975;-78
2023/04/06 13:14:52;;;;;;;;;;;;;;;;;;4421583;32;19929;-78
2023/04/06 13:17:17;;;;;;;;;;;;;;;;;;4433067;32;20128;-78
2023/04/06 13:19:42;;;;;;;;;;;;;;;;;;4425987;32;20295;-76
2023/04/06 13:22:07;;;;;;;;;;;;;;;;;;4433574;32;20005;-76
2023/04/06 13:24:34;;;;;;;;;;;;;;;;;;4427297;32;20261;-76
2023/04/06 13:27:00;;;;;;;;;;;;;;;;;;4426624;32;20317;-76
2023/04/06 13:29:25;;;;;;;;;;;;;;;;;;4423739;32;20231;-77
2023/04/06 13:31:51;;;;;;;;;;;;;;;;;;4423374;32;19986;-77
2023/04/06 13:34:16;;;;;;;;;;;;;;;;;;4422578;32;19947;-77
2023/04/06 13:36:42;;;;;;;;;;;;;;;;;;4423381;32;20025;-77
2023/04/06 13:39:07;;;;;;;;;;;;;;;;;;4434840;32;19955;-78
2023/04/06 13:41:32;;;;;;;;;;;;;;;;;;4416749;32;19937;-79
2023/04/06 13:43:57;;;;;;;;;;;;;;;;;;4418006;32;20011;-78
2023/04/06 13:46:23;;;;;;;;;;;;;;;;;;4426968;32;19940;-78
2023/04/06 13:48:49;;;;;;;;;;;;;;;;;;4426229;32;19969;-79
2023/04/06 13:51:15;;;;;;;;;;;;;;;;;;4430841;32;19975;-77
2023/04/06 13:53:40;;;;;;;;;;;;;;;;;;4429782;32;19975;-78
2023/04/06 13:56:05;;;;;;;;;;;;;;;;;;4419745;32;19985;-78
2023/04/06 13:58:30;;;;;;;;;;;;;;;;;;4424427;32;19963;-78
2023/04/06 14:00:56;;;;;;;;;;;;;;;;;;4421723;32;20372;-78
2023/04/06 14:03:21;;;;;;;;;;;;;;;;;;4414918;32;20343;-78
2023/04/06 14:05:47;;;;;;;;;;;;;;;;;;4422682;32;19944;-78
2023/04/06 14:08:12;;;;;;;;;;;;;;;;;;4432565;32;20396;-79
2023/04/06 14:10:37;;;;;;;;;;;;;;;;;;4422253;32;20310;-79
2023/04/06 14:13:02;;;;;;;;;;;;;;;;;;4436097;32;20348;-78
2023/04/06 14:15:28;;;;;;;;;;;;;;;;;;4417626;32;19965;-77
2023/04/06 14:17:53;;;;;;;;;;;;;;;;;;4421906;32;19932;-77
2023/04/06 14:20:18;;;;;;;;;;;;;;;;;;4437233;32;19950;-77
2023/04/06 14:22:44;;;;;;;;;;;;;;;;;;4422375;32;19933;-78
2023/04/06 14:25:10;;;;;;;;;;;;;;;;;;4421979;32;20337;-78
2023/04/06 14:27:35;;;;;;;;;;;;;;;;;;4422067;32;19933;-77
2023/04/06 14:30:01;;;;;;;;;;;;;;;;;;4423232;32;19937;-77
2023/04/06 14:32:26;;;;;;;;;;;;;;;;;;4423221;32;19953;-77
2023/04/06 14:34:51;;;;;;;;;;;;;;;;;;4438202;32;20317;-77
2023/04/06 14:37:17;;;;;;;;;;;;;;;;;;4438510;32;19947;-77
2023/04/06 14:39:42;;;;;;;;;;;;;;;;;;4439537;32;19936;-77
2023/04/06 14:42:07;;;;;;;;;;;;;;;;;;4425206;32;20008;-78
2023/04/06 14:44:32;;;;;;;;;;;;;;;;;;4425837;32;19989;-76
2023/04/06 14:46:57;;;;;;;;;;;;;;;;;;4435678;32;20457;-77
2023/04/06 14:49:23;;;;;;;;;;;;;;;;;;4422450;32;19988;-76
2023/04/06 14:51:48;;;;;;;;;;;;;;;;;;4431518;32;19972;-75
2023/04/06 14:54:13;;;;;;;;;;;;;;;;;;4431449;32;19955;-74
2023/04/06 14:56:38;;;;;;;;;;;;;;;;;;4451559;32;19992;-75
2023/04/06 14:59:03;;;;;;;;;;;;;;;;;;4446590;32;19933;-75
2023/04/06 15:01:28;;;;;;;;;;;;;;;;;;4445511;32;20039;-75
2023/04/06 15:03:53;;;;;;;;;;;;;;;;;;4433450;32;19932;-76
2023/04/06 15:06:20;;;;;;;;;;;;;;;;;;4433979;32;19968;-77
2023/04/06 15:08:46;;;;;;;;;;;;;;;;;;4424102;32;19944;-76
2023/04/06 15:11:11;;;;;;;;;;;;;;;;;;4436416;32;19968;-76
2023/04/06 15:13:36;;;;;;;;;;;;;;;;;;4434729;32;20001;-75
2023/04/06 15:16:01;;;;;;;;;;;;;;;;;;4421985;32;19937;-77
2023/04/06 15:18:26;;;;;;;;;;;;;;;;;;4423338;32;19992;-76
2023/04/06 15:20:51;;;;;;;;;;;;;;;;;;4427181;32;19945;-76
2023/04/06 15:23:17;;;;;;;;;;;;;;;;;;4440604;32;19932;-77
2023/04/06 15:25:42;;;;;;;;;;;;;;;;;;4446061;32;19959;-77
2023/04/06 15:28:07;;;;;;;;;;;;;;;;;;4440132;32;20009;-77
2023/04/06 15:30:33;;;;;;;;;;;;;;;;;;4438766;32;20036;-77
2023/04/06 15:32:58;;;;;;;;;;;;;;;;;;4438653;32;19978;-78
2023/04/06 15:35:23;;;;;;;;;;;;;;;;;;4424307;32;19949;-76
2023/04/06 15:37:49;;;;;;;;;;;;;;;;;;4417205;32;19987;-77
2023/04/06 15:40:15;;;;;;;;;;;;;;;;;;4424737;32;19933;-76
2023/04/06 15:42:42;;;;;;;;;;;;;;;;;;4423043;32;19990;-77
2023/04/06 15:45:07;;;;;;;;;;;;;;;;;;4435147;32;19944;-76
2023/04/06 15:47:32;;;;;;;;;;;;;;;;;;4433369;32;20008;-76
2023/04/06 15:49:57;;;;;;;;;;;;;;;;;;4437064;32;19951;-77
2023/04/06 15:52:23;;;;;;;;;;;;;;;;;;4425696;32;19960;-76
2023/04/06 15:54:48;;;;;;;;;;;;;;;;;;4425012;32;19988;-75
2023/04/06 15:57:13;;;;;;;;;;;;;;;;;;4434828;32;20296;-76
2023/04/06 15:59:38;;;;;;;;;;;;;;;;;;4422464;32;19973;-75
2023/04/06 16:02:03;;;;;;;;;;;;;;;;;;4423780;32;19994;-75
2023/04/06 16:04:29;;;;;;;;;;;;;;;;;;4437069;32;19988;-75
2023/04/06 16:06:54;;;;;;;;;;;;;;;;;;4437609;32;19955;-75
2023/04/06 16:09:19;;;;;;;;;;;;;;;;;;4423412;32;19952;-76
2023/04/06 16:11:45;;;;;;;;;;;;;;;;;;4422975;32;19941;-76
2023/04/06 16:14:10;;;;;;;;;;;;;;;;;;4437028;32;19945;-75
2023/04/06 16:16:35;;;;;;;;;;;;;;;;;;4423144;32;19940;-76
2023/04/06 16:19:00;;;;;;;;;;;;;;;;;;4438017;32;19949;-76
2023/04/06 16:21:27;;;;;;;;;;;;;;;;;;4437990;32;20016;-75
2023/04/06 16:23:52;;;;;;;;;;;;;;;;;;4438071;32;19976;-76
2023/04/06 16:26:18;;;;;;;;;;;;;;;;;;4437331;32;19994;-75
2023/04/06 16:28:43;;;;;;;;;;;;;;;;;;4423234;32;19937;-75
2023/04/06 16:31:08;;;;;;;;;;;;;;;;;;4438595;32;19975;-74
2023/04/06 16:33:33;;;;;;;;;;;;;;;;;;4422744;32;19936;-73
2023/04/06 16:35:58;;;;;;;;;;;;;;;;;;4423416;32;19992;-74
2023/04/06 16:38:24;;;;;;;;;;;;;;;;;;4437041;32;19944;-73